Whites, Mississippi
Current Conditions -  °F | °C
As of 5:58 PM on Monday 20 Oct 2014 (Local Time) from KCBM Reporting Station
Scattered Clouds Scattered Clouds  
Wind Chill: 69°   Ceiling: Unl
Heat Index: 69°   Visibility: 10mi
Dew Point: 49°   Wind: 2mph
Humidity: 50%   Direction: 330°NNW
Pressure: 30.01"   Gusts: NA
Location:  33.6681°N, 88.7618°W
Report Text: KCBM 202258Z 33002KT 10SM SCT130 21/10 A3001 RMK AO2A SLP165 T02060097 $
Loading
Personal Weather Stations






























Interactive Weather Map
Tropical Storm Tracking
New forecast layout! Learn more

10-Day Weather Forecast

Advertisements
Track Severe Weather on mobile